Flight Track Log - Related Links

Times and Time Zones

All times are in EDT time to prevent confusion due to time zone crossing. See the SKW6492 flight status page for this flight to view local times or setup timezone preferences in your user account.

Time Position Orientation Groundspeed Altitude Reporting Facility
EDT Latitude Longitude Course Direction KTS MPH feet Rate Location/Type
Sun 04:14:36 PM 30.3078 -97.7528 291° West 249 287 5,700  Level Houston Center
Sun 04:15:38 PM 30.3425 -97.8242 299° West 251 289 8,800 2,516 Climbing Houston Center
Sun 04:16:00 PM 30.4415 -97.7392 293° West  Level FlightAware Approximate
Sun 04:16:40 PM 30.3769 -97.8986 298° West 256 295 10,900  Level Houston Center
Sun 04:17:00 PM 30.4842 -97.8565 293° West  Level FlightAware Approximate
Sun 04:17:42 PM 30.4194 -97.9856 300° West 298 343 12,900  Level Houston Center
Sun 04:18:00 PM 30.5249 -97.9747 291° West  Level FlightAware Approximate
Sun 04:18:44 PM 30.4694 -98.0889 299° West 310 357 15,900  Level Houston Center
Sun 04:19:00 PM 30.5646 -98.0934 291° West  Level FlightAware Approximate
Sun 04:19:46 PM 30.5119 -98.1767 299° West 309 356 18,300  Level Houston Center
Sun 04:20:00 PM 30.6041 -98.2123 291° West  Level FlightAware Approximate
Sun 04:20:48 PM 30.5522 -98.2650 298° West 307 353 20,200  Level Houston Center
Sun 04:21:50 PM 30.5967 -98.3575 299° West 319 367 22,000 1,355 Climbing Houston Center
Sun 04:22:52 PM 30.6408 -98.4547 298° West 335 386 23,000 864 Climbing Houston Center
Sun 04:23:55 PM 30.6908 -98.5597 299° West 364 419 23,800 624 Climbing Houston Center
Sun 04:24:57 PM 30.7442 -98.6736 299° West 393 452 24,300 774 Climbing Houston Center
Sun 04:25:59 PM 30.8153 -98.8056 302° West 410 472 25,400 1,065 Climbing Houston Center
Sun 04:27:01 PM 30.9203 -98.8683 333° Northwest 420 483 26,500 1,113 Climbing Houston Center
Sun 04:28:03 PM 31.0269 -98.9314 333° Northwest 422 486 27,700 1,355 Climbing Houston Center
Sun 04:29:05 PM 31.1308 -98.9950 332° Northwest 418 481 29,300 1,258 Climbing Houston Center
Sun 04:30:07 PM 31.2319 -99.0578 332° Northwest 409 471 30,300 774 Climbing Houston Center
Sun 04:31:09 PM 31.3350 -99.1225 332° Northwest 414 476 30,900 686 Climbing Houston Center
Sun 04:31:52 PM 31.4078 -99.1683 332° Northwest 414 476 31,500 1,049 Climbing Fort Worth Center
Sun 04:32:52 PM 31.5153 -99.2361 332° Northwest 408 470 32,700 1,250 Climbing Fort Worth Center
Sun 04:33:52 PM 31.6125 -99.2967 332° Northwest 408 470 34,000 650 Climbing Fort Worth Center
Sun 04:34:52 PM 31.7117 -99.3572 333° Northwest 403 464 34,000  Level Fort Worth Center
Sun 04:35:52 PM 31.8131 -99.4253 330° Northwest 403 464 34,000 150 Level Fort Worth Center
Sun 04:36:52 PM 31.9142 -99.4889 332° Northwest 413 475 34,300 700 Climbing Fort Worth Center
Sun 04:37:52 PM 32.0133 -99.5522 332° Northwest 413 475 35,400 1,100 Climbing Fort Worth Center
Sun 04:38:52 PM 32.1106 -99.6133 332° Northwest 406 467 36,500 923 Climbing Fort Worth Center
Sun 04:40:28 PM 32.2497 -99.7017 332° Northwest 377 434 37,800 570 Climbing Houston Center
Sun 04:41:30 PM 32.3567 -99.7711 331° Northwest 372 428 38,000 143 Climbing Houston Center
Sun 04:41:52 PM 32.3850 -99.7922 328° Northwest 372 428 38,000  Level Fort Worth Center
Sun 04:42:52 PM 32.4797 -99.8539 331° Northwest 372 428 38,000  Level Fort Worth Center
Sun 04:43:52 PM 32.5744 -99.9156 331° Northwest 372 428 38,000  Level Fort Worth Center
Sun 04:44:52 PM 32.6611 -99.9747 330° Northwest 374 430 38,000  Level Fort Worth Center
Sun 04:45:52 PM 32.7619 -100.0394 332° Northwest 405 466 38,000  Level Fort Worth Center
Sun 04:46:52 PM 32.8589 -100.0967 334° Northwest 405 466 38,000  Level Fort Worth Center
Sun 04:47:52 PM 32.9514 -100.1589 331° Northwest 400 460 38,000  Level Fort Worth Center
Sun 04:48:52 PM 33.0481 -100.2214 332° Northwest 394 453 38,000  Level Fort Worth Center
Sun 04:49:52 PM 33.1428 -100.2839 331° Northwest 389 448 38,000  Level Fort Worth Center
Sun 04:50:52 PM 33.2394 -100.3467 331° Northwest 389 448 38,000  Level Fort Worth Center
Sun 04:51:52 PM 33.3339 -100.4094 331° Northwest 389 448 38,000  Level Fort Worth Center
Sun 04:52:52 PM 33.4283 -100.4722 331° Northwest 389 448 38,000  Level Fort Worth Center
Sun 04:53:52 PM 33.5250 -100.5356 331° Northwest 389 448 38,000  Level Fort Worth Center
Sun 04:54:52 PM 33.6236 -100.5989 332° Northwest 389 448 38,000  Level Fort Worth Center
Sun 04:55:52 PM 33.7200 -100.6622 331° Northwest 389 448 38,000  Level Fort Worth Center
Sun 04:56:52 PM 33.8164 -100.7308 329° Northwest 389 448 38,000  Level Fort Worth Center
Sun 04:57:52 PM 33.9147 -100.7922 333° Northwest 389 448 38,000  Level Fort Worth Center
Sun 04:58:52 PM 34.0089 -100.8586 330° Northwest 389 448 38,000  Level Fort Worth Center
Sun 05:01:05 PM 34.2303 -101.0064 331° Northwest 398 458 38,000  Level Albuquerque Center
Sun 05:02:07 PM 34.3278 -101.0717 331° Northwest 400 460 38,000  Level Albuquerque Center
Sun 05:03:09 PM 34.4261 -101.1383 331° Northwest 403 464 38,000  Level Albuquerque Center
Sun 05:05:13 PM 34.6222 -101.2725 331° Northwest 406 467 38,000  Level Albuquerque Center
Sun 05:06:14 PM 34.7406 -101.3561 330° Northwest 409 471 38,000  Level Albuquerque Center
Sun 05:07:16 PM 34.8403 -101.4233 331° Northwest 408 470 38,000  Level Albuquerque Center
Sun 05:08:19 PM 34.9397 -101.4922 330° Northwest 411 473 38,000  Level Albuquerque Center
Sun 05:09:20 PM 35.0389 -101.5600 331° Northwest 417 480 38,000  Level Albuquerque Center
Sun 05:11:24 PM 35.2594 -101.7097 331° Northwest 417 480 38,000  Level Albuquerque Center
Sun 05:12:26 PM 35.3708 -101.7608 339° North 423 487 38,000  Level Albuquerque Center
Sun 05:13:28 PM 35.4814 -101.8106 340° North 421 484 38,000  Level Albuquerque Center
Sun 05:14:30 PM 35.5814 -101.8589 339° North 420 483 38,000  Level Albuquerque Center
Sun 05:15:32 PM 35.7139 -101.9200 339° North 423 487 38,000  Level Albuquerque Center
Sun 05:17:36 PM 35.9344 -102.0228 339° North 424 488 38,000  Level Albuquerque Center
Sun 05:18:38 PM 36.0456 -102.0739 340° North 427 491 38,000  Level Albuquerque Center
Sun 05:19:40 PM 36.1567 -102.1250 340° North 426 490 38,000  Level Albuquerque Center
Sun 05:20:42 PM 36.2664 -102.1792 338° Northwest 425 489 38,000 -452 Level Albuquerque Center
Sun 05:22:46 PM 36.5111 -102.2925 340° North 427 491 36,600 -645 Descending Albuquerque Center
Sun 05:23:48 PM 36.6239 -102.3469 339° North 432 497 36,000 -290 Descending Albuquerque Center
Sun 05:24:50 PM 36.7375 -102.4019 339° North 437 503 36,000  Level Albuquerque Center
Sun 05:25:52 PM 36.8472 -102.4531 340° North 427 491 36,000  Level Albuquerque Center
Sun 05:26:54 PM 36.9631 -102.5108 338° Northwest 422 486 36,000  Level Albuquerque Center
Sun 05:27:55 PM 37.0783 -102.5653 339° North 420 483 36,000  Level Albuquerque Center
Sun 05:28:57 PM 37.1828 -102.6150 339° North 421 484 36,000  Level Albuquerque Center
Sun 05:29:59 PM 37.3050 -102.6744 339° North 421 484 36,000  Level Albuquerque Center
Sun 05:31:01 PM 37.4111 -102.7269 339° North 427 491 36,000 -261 Level Albuquerque Center
Sun 05:32:17 PM 37.5586 -102.7925 341° North 441 507 35,400 -826 Descending Denver Center
Sun 05:33:19 PM 37.6931 -102.8333 346° North 443 510 34,100 -677 Descending Denver Center
Sun 05:34:21 PM 37.8053 -102.8689 346° North 434 499 34,000 -48 Descending Denver Center
Sun 05:35:23 PM 37.9369 -102.8772 357° North 436 502 34,000  Level Denver Center
Sun 05:36:24 PM 38.0583 -102.8067 25° Northeast 455 524 34,000 -829 Level Denver Center
Sun 05:37:26 PM 38.1675 -102.7403 26° Northeast 452 520 32,300 -1,742 Descending Denver Center
Sun 05:38:28 PM 38.2775 -102.6883 20° North 444 511 30,400 -1,113 Descending Denver Center
Sun 05:39:30 PM 38.3794 -102.7758 326° Northwest 410 472 30,000 -194 Descending Denver Center
Sun 05:40:32 PM 38.4456 -102.8861 307° West 409 471 30,000  Level Denver Center
Sun 05:41:34 PM 38.5219 -103.0142 307° West 408 470 30,000  Level Denver Center
Sun 05:42:36 PM 38.5861 -103.1217 307° West 410 472 30,000  Level Denver Center
Sun 05:43:37 PM 38.6625 -103.2308 312° West 409 471 30,000  Level Denver Center
Sun 05:44:39 PM 38.7500 -103.3603 311° West 409 471 30,000  Level Denver Center
Sun 05:45:41 PM 38.8178 -103.4611 311° West 409 471 30,000 -1,194 Level Denver Center
Sun 05:47:00 PM 38.9164 -103.6079 311° West  Level FlightAware Approximate
Sun 05:47:45 PM 38.9736 -103.6931 311° West 407 468 26,300  Level Denver Center
Sun 05:48:47 PM 39.0486 -103.8047 311° West 409 471 24,200 -2,032 Descending Denver Center
Sun 05:49:49 PM 39.1206 -103.9144 310° West 400 460 22,100 -2,098 Descending Denver Center
Sun 05:50:50 PM 39.1911 -104.0197 311° West 389 448 19,900 -1,805 Descending Denver Center
Sun 05:51:52 PM 39.2617 -104.1303 310° West 357 411 18,400 -1,500 Descending Denver Center
Sun 05:52:54 PM 39.2869 -104.2383 287° West 307 353 16,800 -1,645 Descending Denver Center
Sun 05:53:56 PM 39.3181 -104.3389 292° West 306 352 15,000 -1,694 Descending Denver Center
Sun 05:54:58 PM 39.3894 -104.4103 322° Northwest 302 348 13,300 -1,200 Descending Denver Center
Sun 05:57:01 PM 39.5350 -104.5114 332° Northwest 273 314 11,300 -973 Descending Denver Center
Sun 05:58:03 PM 39.5950 -104.5525 332° Northwest 249 287 10,300 -1,208 Descending Denver Center
Sun 05:59:35 PM 39.6833 -104.6167 331° Northwest 248 285 8,200 -1,268 Descending Denver TRACON
Sun 06:00:06 PM 39.7189 -104.6406 333° Northwest 251 289 7,700 -645 Descending Denver Center
Sun 06:01:08 PM 39.7661 -104.6619 341° North 238 274 7,200 -968 Descending Denver Center
Sun 06:02:10 PM 39.8225 -104.6603 North 153 176 5,700 -823 Descending Denver Center
Sun 06:03:12 PM 39.8558 -104.6608 359° North 147 169 5,500 -194 Descending Denver Center

Login

Don't have an account? Register now (free) for customized features, flight alerts, and more!